createdAt,value
2023-12-27T00:00:01.784Z,3.40
2023-12-27T00:01:01.761Z,3.29
2023-12-27T00:02:01.712Z,3.45
2023-12-27T00:03:02.810Z,3.35
2023-12-27T00:04:01.793Z,3.42
2023-12-27T00:05:01.708Z,3.48
2023-12-27T00:06:02.594Z,3.40
2023-12-27T00:07:01.689Z,3.32
2023-12-27T00:08:01.633Z,3.36
2023-12-27T00:09:01.684Z,3.35
2023-12-27T00:10:01.646Z,3.24
2023-12-27T00:11:01.592Z,3.24
2023-12-27T00:12:01.617Z,3.20
2023-12-27T00:13:01.610Z,3.06
2023-12-27T00:14:01.572Z,2.99
2023-12-27T00:15:01.656Z,3.03
2023-12-27T00:16:01.544Z,3.00
2023-12-27T00:17:01.533Z,2.96
2023-12-27T00:18:01.834Z,2.92
2023-12-27T00:19:01.676Z,2.92
2023-12-27T00:20:01.492Z,2.87
2023-12-27T00:21:01.562Z,2.81
2023-12-27T00:22:01.476Z,2.84
2023-12-27T00:23:01.458Z,2.75
2023-12-27T00:24:01.481Z,2.69
2023-12-27T00:25:01.436Z,2.61
2023-12-27T00:26:01.424Z,2.69
2023-12-27T00:27:01.443Z,2.59
2023-12-27T00:28:01.449Z,2.57
2023-12-27T00:29:01.405Z,2.54
2023-12-27T00:30:01.437Z,2.53
2023-12-27T00:31:01.419Z,2.46
2023-12-27T00:32:01.375Z,2.36
2023-12-27T00:33:01.477Z,2.38
2023-12-27T00:34:01.613Z,2.42
2023-12-27T00:35:01.344Z,2.38
2023-12-27T00:36:01.342Z,2.31
2023-12-27T00:37:01.301Z,2.34
2023-12-27T00:38:01.541Z,2.28
2023-12-27T00:39:01.359Z,2.35
2023-12-27T00:40:01.345Z,2.35
2023-12-27T00:41:01.256Z,2.30
2023-12-27T00:42:01.367Z,2.41
2023-12-27T00:43:01.390Z,2.31
2023-12-27T00:44:01.273Z,2.36
2023-12-27T00:45:01.346Z,2.38
2023-12-27T00:46:01.200Z,2.38
2023-12-27T00:47:01.384Z,2.31
2023-12-27T00:48:01.548Z,2.28
2023-12-27T00:49:01.292Z,2.31
2023-12-27T00:50:01.256Z,2.31
2023-12-27T00:51:01.152Z,2.31
2023-12-27T00:52:01.158Z,2.42
2023-12-27T00:53:01.118Z,2.42
2023-12-27T00:54:01.159Z,2.34
2023-12-27T00:55:01.121Z,2.31
2023-12-27T00:56:01.201Z,2.31
2023-12-27T00:57:01.176Z,2.36
2023-12-27T00:58:01.087Z,2.30
2023-12-27T00:59:01.046Z,2.27
2023-12-27T01:00:01.245Z,2.23
2023-12-27T01:01:01.128Z,2.16
2023-12-27T01:02:01.035Z,2.23
2023-12-27T01:03:01.043Z,2.23
2023-12-27T01:04:01.209Z,2.23
2023-12-27T01:05:01.078Z,2.27
2023-12-27T01:06:01.039Z,2.21
2023-12-27T01:07:00.973Z,2.25
2023-12-27T01:08:01.016Z,2.24
2023-12-27T01:09:01.026Z,2.18
2023-12-27T01:10:00.966Z,2.10
2023-12-27T01:11:00.933Z,2.14
2023-12-27T01:12:00.937Z,2.03
2023-12-27T01:13:00.901Z,1.98
2023-12-27T01:14:00.926Z,1.95
2023-12-27T01:15:00.940Z,2.03
2023-12-27T01:16:00.910Z,1.95
2023-12-27T01:17:00.869Z,1.93
2023-12-27T01:18:01.272Z,1.95
2023-12-27T01:19:00.936Z,2.05
2023-12-27T01:20:00.916Z,2.05
2023-12-27T01:21:00.850Z,2.03
2023-12-27T01:22:00.819Z,2.02
2023-12-27T01:23:00.823Z,2.02
2023-12-27T01:24:01.059Z,2.03
2023-12-27T01:25:00.775Z,2.02
2023-12-27T01:26:00.753Z,2.00
2023-12-27T01:27:00.770Z,2.02
2023-12-27T01:28:00.933Z,2.10
2023-12-27T01:29:00.733Z,2.12
2023-12-27T01:30:00.742Z,2.10
2023-12-27T01:31:00.830Z,2.12
2023-12-27T01:32:00.710Z,2.23
2023-12-27T01:33:00.982Z,2.35
2023-12-27T01:34:08.753Z,2.31
2023-12-27T01:35:01.820Z,2.36
2023-12-27T01:36:00.659Z,2.35
2023-12-27T01:37:00.624Z,2.30
2023-12-27T01:38:00.709Z,2.27
2023-12-27T01:39:00.668Z,2.27
2023-12-27T01:40:00.649Z,2.21
2023-12-27T01:41:00.606Z,2.24
2023-12-27T01:42:00.692Z,2.20
2023-12-27T01:43:00.622Z,2.20
2023-12-27T01:44:00.594Z,2.14
2023-12-27T01:45:00.741Z,2.14
2023-12-27T01:46:00.613Z,2.09
2023-12-27T01:47:00.582Z,2.09
2023-12-27T01:48:01.013Z,2.17
2023-12-27T01:49:00.759Z,2.12
2023-12-27T01:50:00.552Z,2.03
2023-12-27T01:51:00.529Z,2.14
2023-12-27T01:52:00.520Z,2.14
2023-12-27T01:53:00.494Z,2.07
2023-12-27T01:54:00.447Z,2.02
2023-12-27T01:55:00.434Z,2.00
2023-12-27T01:56:00.428Z,1.98
2023-12-27T01:57:02.412Z,2.00
2023-12-27T01:58:00.533Z,2.07
2023-12-27T01:59:00.392Z,2.07
2023-12-27T02:00:00.469Z,2.10
2023-12-27T02:01:00.426Z,2.12
2023-12-27T02:02:00.504Z,2.06
2023-12-27T02:03:00.491Z,2.12
2023-12-27T02:04:00.471Z,2.10
2023-12-27T02:05:00.366Z,2.12
2023-12-27T02:06:00.385Z,2.10
2023-12-27T02:07:00.314Z,2.06
2023-12-27T02:08:00.301Z,2.05
2023-12-27T02:09:00.341Z,2.00
2023-12-27T02:10:00.349Z,1.98
2023-12-27T02:11:00.264Z,2.05
2023-12-27T02:12:00.307Z,1.99
2023-12-27T02:13:00.238Z,1.98
2023-12-27T02:14:00.257Z,2.07
2023-12-27T02:15:00.317Z,2.05
2023-12-27T02:16:00.218Z,2.03
2023-12-27T02:17:00.228Z,2.06
2023-12-27T02:18:00.528Z,2.09
2023-12-27T02:19:00.271Z,2.00
2023-12-27T02:20:00.292Z,2.10
2023-12-27T02:21:00.201Z,2.02
2023-12-27T02:22:00.162Z,2.00
2023-12-27T02:23:00.134Z,2.12
2023-12-27T02:24:00.120Z,2.07
2023-12-27T02:25:00.161Z,1.95
2023-12-27T02:26:00.156Z,2.05
2023-12-27T02:27:00.092Z,2.00
2023-12-27T02:28:00.176Z,1.99
2023-12-27T02:29:00.057Z,2.03
2023-12-27T02:30:00.099Z,1.95
2023-12-27T02:31:00.135Z,1.98
2023-12-27T02:32:00.053Z,2.03
2023-12-27T02:33:00.150Z,2.00
2023-12-27T02:34:00.224Z,1.93
2023-12-27T02:35:00.131Z,1.93
2023-12-27T02:36:00.007Z,1.91
2023-12-27T02:36:59.965Z,1.87
2023-12-27T02:38:00.279Z,1.84
2023-12-27T02:39:00.863Z,1.83
2023-12-27T02:40:00.523Z,1.83
2023-12-27T02:40:59.919Z,1.93
2023-12-27T02:41:59.948Z,1.81
2023-12-27T02:42:59.905Z,1.87
2023-12-27T02:43:59.941Z,1.98
2023-12-27T02:44:59.914Z,1.91
2023-12-27T02:45:59.892Z,1.91
2023-12-27T02:46:59.846Z,1.87
2023-12-27T02:48:00.189Z,1.88
2023-12-27T02:48:59.909Z,2.02
2023-12-27T02:49:59.820Z,1.98
2023-12-27T02:50:59.889Z,1.98
2023-12-27T02:51:59.822Z,1.90
2023-12-27T02:52:59.781Z,1.93
2023-12-27T02:53:59.810Z,1.87
2023-12-27T02:54:59.756Z,1.90
2023-12-27T02:55:59.760Z,1.88
2023-12-27T02:56:59.786Z,1.93
2023-12-27T02:57:59.752Z,1.91
2023-12-27T02:58:59.757Z,1.91
2023-12-27T02:59:59.756Z,1.91
2023-12-27T03:00:59.714Z,1.88
2023-12-27T03:01:59.724Z,1.98
2023-12-27T03:02:59.733Z,1.93
2023-12-27T03:03:59.699Z,1.91
2023-12-27T03:04:59.694Z,1.98
2023-12-27T03:05:59.686Z,1.91
2023-12-27T03:06:59.635Z,1.84
2023-12-27T03:07:59.843Z,1.81
2023-12-27T03:08:59.617Z,1.91
2023-12-27T03:09:59.615Z,1.90
2023-12-27T03:10:59.580Z,1.84
2023-12-27T03:11:59.608Z,1.91
2023-12-27T03:12:59.576Z,1.87
2023-12-27T03:13:59.618Z,1.80
2023-12-27T03:14:59.573Z,1.87
2023-12-27T03:15:59.529Z,1.86
2023-12-27T03:16:59.524Z,1.87
2023-12-27T03:17:59.852Z,1.95
2023-12-27T03:18:59.598Z,1.93
2023-12-27T03:19:59.525Z,1.73
2023-12-27T03:20:59.513Z,1.83
2023-12-27T03:21:59.463Z,1.73
2023-12-27T03:22:59.519Z,1.77
2023-12-27T03:23:59.511Z,1.66
2023-12-27T03:24:59.430Z,1.72
2023-12-27T03:25:59.432Z,1.69
2023-12-27T03:26:59.502Z,1.65
2023-12-27T03:27:59.627Z,1.68
2023-12-27T03:28:59.383Z,1.72
2023-12-27T03:29:59.403Z,1.73
2023-12-27T03:30:59.551Z,1.63
2023-12-27T03:31:59.355Z,1.63
2023-12-27T03:32:59.533Z,1.60
2023-12-27T03:33:59.433Z,1.52
2023-12-27T03:34:59.308Z,1.63
2023-12-27T03:35:59.321Z,1.58
2023-12-27T03:36:59.301Z,1.47
2023-12-27T03:37:59.481Z,1.52
2023-12-27T03:38:59.278Z,1.52
2023-12-27T03:39:59.328Z,1.48
2023-12-27T03:40:59.306Z,1.51
2023-12-27T03:41:59.257Z,1.51
2023-12-27T03:42:59.224Z,1.47
2023-12-27T03:43:59.232Z,1.42
2023-12-27T03:44:59.227Z,1.45
2023-12-27T03:45:59.179Z,1.41
2023-12-27T03:46:59.173Z,1.51
2023-12-27T03:47:59.464Z,1.45
2023-12-27T03:48:59.206Z,1.51
2023-12-27T03:49:59.161Z,1.51
2023-12-27T03:50:59.188Z,1.47
2023-12-27T03:51:59.132Z,1.50
2023-12-27T03:52:59.105Z,1.51
2023-12-27T03:53:59.540Z,1.50
2023-12-27T03:54:59.108Z,1.51
2023-12-27T03:55:59.091Z,1.42
2023-12-27T03:56:59.107Z,1.47
2023-12-27T03:57:59.598Z,1.42
2023-12-27T03:58:59.093Z,1.42
2023-12-27T03:59:59.083Z,1.50
2023-12-27T04:00:59.037Z,1.47
2023-12-27T04:01:59.000Z,1.50
2023-12-27T04:02:59.102Z,1.37
2023-12-27T04:03:58.996Z,1.45
2023-12-27T04:04:58.969Z,1.55
2023-12-27T04:05:59.111Z,1.51
2023-12-27T04:06:58.960Z,1.55
2023-12-27T04:07:59.319Z,1.50
2023-12-27T04:08:58.958Z,1.54
2023-12-27T04:09:58.917Z,1.59
2023-12-27T04:10:58.918Z,1.59
2023-12-27T04:11:58.927Z,1.65
2023-12-27T04:12:58.921Z,1.58
2023-12-27T04:13:58.874Z,1.55
2023-12-27T04:14:58.899Z,1.54
2023-12-27T04:15:58.846Z,1.68
2023-12-27T04:16:58.841Z,1.65
2023-12-27T04:17:59.278Z,1.73
2023-12-27T04:18:58.931Z,1.72
2023-12-27T04:19:58.806Z,1.80
2023-12-27T04:20:58.814Z,1.88
2023-12-27T04:21:58.807Z,1.88
2023-12-27T04:22:58.786Z,1.87
2023-12-27T04:23:58.809Z,1.90
2023-12-27T04:24:58.813Z,1.87
2023-12-27T04:25:58.735Z,1.98
2023-12-27T04:26:58.772Z,1.98
2023-12-27T04:27:59.007Z,1.87
2023-12-27T04:28:58.716Z,1.93
2023-12-27T04:29:59.349Z,1.84
2023-12-27T04:30:58.787Z,1.98
2023-12-27T04:31:58.691Z,1.93
2023-12-27T04:32:58.958Z,1.90
2023-12-27T04:33:58.732Z,1.91
2023-12-27T04:34:58.646Z,1.88
2023-12-27T04:36:00.478Z,1.87
2023-12-27T04:36:58.666Z,1.98
2023-12-27T04:37:58.860Z,2.05
2023-12-27T04:38:59.637Z,2.05
2023-12-27T04:39:58.589Z,2.00
2023-12-27T04:40:58.865Z,2.07
2023-12-27T04:41:58.616Z,2.07
2023-12-27T04:42:58.557Z,2.12
2023-12-27T04:43:58.574Z,2.12
2023-12-27T04:44:58.583Z,2.09
2023-12-27T04:45:58.534Z,2.06
2023-12-27T04:46:58.519Z,2.18
2023-12-27T04:47:58.901Z,2.16
2023-12-27T04:48:58.652Z,2.14
2023-12-27T04:49:58.614Z,2.10
2023-12-27T04:50:58.571Z,2.12
2023-12-27T04:51:58.461Z,2.07
2023-12-27T04:52:58.445Z,2.14
2023-12-27T04:53:58.495Z,2.18
2023-12-27T04:54:58.489Z,2.09
2023-12-27T04:55:58.404Z,2.10
2023-12-27T04:56:58.485Z,2.14
2023-12-27T04:57:58.656Z,2.09
2023-12-27T04:58:58.367Z,2.10
2023-12-27T04:59:58.438Z,2.23
2023-12-27T05:00:58.470Z,2.18
2023-12-27T05:01:58.345Z,2.12
2023-12-27T05:02:58.366Z,2.14
2023-12-27T05:03:58.439Z,2.20
2023-12-27T05:04:58.445Z,2.10
2023-12-27T05:05:58.388Z,2.14
2023-12-27T05:06:58.838Z,2.25
2023-12-27T05:07:58.638Z,2.21
2023-12-27T05:08:58.288Z,2.31
2023-12-27T05:09:58.275Z,2.27
2023-12-27T05:10:58.237Z,2.34
2023-12-27T05:11:58.242Z,2.31
2023-12-27T05:12:58.237Z,2.28
2023-12-27T05:13:58.216Z,2.27
2023-12-27T05:14:58.228Z,2.34
2023-12-27T05:15:58.866Z,2.36
2023-12-27T05:16:58.167Z,2.28
2023-12-27T05:17:58.479Z,2.35
2023-12-27T05:18:58.220Z,2.42
2023-12-27T05:19:58.129Z,2.43
2023-12-27T05:20:58.188Z,2.30
2023-12-27T05:21:58.126Z,2.39
2023-12-27T05:22:58.108Z,2.42
2023-12-27T05:23:58.134Z,2.43
2023-12-27T05:24:58.092Z,2.42
2023-12-27T05:25:58.073Z,2.34
2023-12-27T05:26:58.172Z,2.38
2023-12-27T05:27:58.306Z,2.34
2023-12-27T05:28:58.033Z,2.34
2023-12-27T05:29:58.049Z,2.30
2023-12-27T05:30:58.086Z,2.30
2023-12-27T05:31:58.210Z,2.28
2023-12-27T05:32:58.104Z,2.21
2023-12-27T05:33:58.108Z,2.10
2023-12-27T05:34:58.818Z,2.23
2023-12-27T05:35:58.545Z,2.14
2023-12-27T05:36:58.349Z,2.16
2023-12-27T05:37:58.114Z,2.17
2023-12-27T05:38:58.036Z,2.10
2023-12-27T05:39:57.926Z,2.02
2023-12-27T05:40:57.904Z,2.02
2023-12-27T05:41:58.198Z,2.00
2023-12-27T05:42:57.880Z,2.03
2023-12-27T05:43:57.876Z,1.93
2023-12-27T05:44:57.875Z,2.02
2023-12-27T05:45:57.897Z,1.93
2023-12-27T05:46:58.124Z,1.90
2023-12-27T05:47:58.200Z,1.90
2023-12-27T05:48:57.923Z,1.98
2023-12-27T05:49:57.844Z,1.90
2023-12-27T05:50:57.872Z,1.93
2023-12-27T05:51:57.825Z,1.90
2023-12-27T05:52:58.334Z,1.87
2023-12-27T05:53:57.878Z,1.87
2023-12-27T05:54:57.754Z,1.90
2023-12-27T05:55:57.764Z,1.95
2023-12-27T05:56:57.812Z,1.93
2023-12-27T05:57:57.929Z,1.98
2023-12-27T05:58:58.339Z,1.80
2023-12-27T05:59:57.804Z,1.70
2023-12-27T06:00:58.388Z,1.84
2023-12-27T06:01:57.678Z,1.73
2023-12-27T06:02:57.718Z,1.81
2023-12-27T06:03:57.756Z,1.80
2023-12-27T06:04:57.714Z,1.76
2023-12-27T06:05:57.682Z,1.79
2023-12-27T06:06:57.638Z,1.90
2023-12-27T06:07:57.896Z,1.77
2023-12-27T06:08:57.645Z,1.90
2023-12-27T06:09:57.592Z,1.88
2023-12-27T06:10:57.584Z,1.98
2023-12-27T06:11:57.610Z,1.88
2023-12-27T06:12:57.550Z,1.86
2023-12-27T06:13:57.550Z,1.70
2023-12-27T06:14:57.588Z,1.84
2023-12-27T06:15:57.511Z,1.80
2023-12-27T06:16:57.522Z,1.79
2023-12-27T06:17:57.873Z,1.70
2023-12-27T06:18:58.565Z,1.72
2023-12-27T06:19:57.484Z,1.72
2023-12-27T06:20:57.496Z,1.62
2023-12-27T06:21:57.447Z,1.60
2023-12-27T06:22:57.431Z,1.73
2023-12-27T06:23:57.519Z,1.69
2023-12-27T06:24:57.417Z,1.80
2023-12-27T06:25:57.403Z,1.72
2023-12-27T06:26:57.494Z,1.77
2023-12-27T06:27:57.672Z,1.69
2023-12-27T06:28:57.392Z,1.70
2023-12-27T06:29:58.363Z,1.68
2023-12-27T06:30:57.441Z,1.60
2023-12-27T06:31:58.357Z,1.60
2023-12-27T06:32:57.482Z,1.66
2023-12-27T06:33:57.412Z,1.62
2023-12-27T06:34:57.301Z,1.63
2023-12-27T06:35:57.378Z,1.68
2023-12-27T06:36:57.337Z,1.69
2023-12-27T06:37:57.477Z,1.66
2023-12-27T06:38:57.297Z,1.63
2023-12-27T06:39:57.274Z,1.52
2023-12-27T06:40:57.249Z,1.58
2023-12-27T06:41:57.372Z,1.59
2023-12-27T06:42:57.241Z,1.52
2023-12-27T06:43:57.195Z,1.47
2023-12-27T06:44:57.213Z,1.44
2023-12-27T06:45:57.218Z,1.42
2023-12-27T06:46:57.187Z,1.52
2023-12-27T06:47:57.539Z,1.54
2023-12-27T06:48:57.245Z,1.45
2023-12-27T06:49:57.223Z,1.45
2023-12-27T06:50:57.195Z,1.45
2023-12-27T06:51:57.140Z,1.51
2023-12-27T06:52:57.097Z,1.45
2023-12-27T06:53:57.134Z,1.50
2023-12-27T06:54:57.070Z,1.50
2023-12-27T06:55:57.091Z,1.58
2023-12-27T06:56:57.142Z,1.50
2023-12-27T06:57:57.344Z,1.50
2023-12-27T06:58:57.028Z,1.50
2023-12-27T06:59:57.201Z,1.48
2023-12-27T07:00:57.193Z,1.42
2023-12-27T07:01:57.004Z,1.33
2023-12-27T07:02:57.101Z,1.32
2023-12-27T07:03:57.052Z,1.34
2023-12-27T07:04:57.068Z,1.33
2023-12-27T07:05:57.152Z,1.32
2023-12-27T07:06:56.972Z,1.34
2023-12-27T07:07:57.216Z,1.33
2023-12-27T07:08:56.930Z,1.27
2023-12-27T07:09:56.950Z,1.37
2023-12-27T07:10:56.915Z,1.36
2023-12-27T07:11:56.902Z,1.33
2023-12-27T07:12:56.894Z,1.36
2023-12-27T07:13:56.855Z,1.50
2023-12-27T07:14:56.896Z,1.33
2023-12-27T07:15:56.869Z,1.52
2023-12-27T07:16:56.834Z,1.50
2023-12-27T07:17:57.134Z,1.52
2023-12-27T07:18:56.924Z,1.44
2023-12-27T07:19:56.876Z,1.44
2023-12-27T07:20:56.784Z,1.44
2023-12-27T07:21:56.798Z,1.40
2023-12-27T07:22:56.765Z,1.41
2023-12-27T07:23:56.975Z,1.45
2023-12-27T07:24:56.736Z,1.52
2023-12-27T07:25:56.765Z,1.50
2023-12-27T07:26:56.712Z,1.54
2023-12-27T07:27:56.985Z,1.59
2023-12-27T07:28:56.734Z,1.50
2023-12-27T07:29:56.847Z,1.59
2023-12-27T07:30:56.792Z,1.59
2023-12-27T07:31:56.655Z,1.48
2023-12-27T07:32:56.681Z,1.54
2023-12-27T07:33:56.801Z,1.60
2023-12-27T07:34:56.660Z,1.60
2023-12-27T07:35:56.622Z,1.60
2023-12-27T07:36:56.657Z,1.48
2023-12-27T07:37:56.986Z,1.59
2023-12-27T07:38:56.619Z,1.65
2023-12-27T07:39:56.589Z,1.66
2023-12-27T07:40:56.581Z,1.65
2023-12-27T07:41:56.540Z,1.62
2023-12-27T07:42:56.617Z,1.60
2023-12-27T07:43:56.532Z,1.59
2023-12-27T07:44:56.517Z,1.69
2023-12-27T07:45:56.537Z,1.63
2023-12-27T07:46:56.504Z,1.63
2023-12-27T07:47:56.796Z,1.60
2023-12-27T07:48:56.675Z,1.59
2023-12-27T07:49:56.568Z,1.69
2023-12-27T07:50:56.440Z,1.68
2023-12-27T07:51:56.450Z,1.69
2023-12-27T07:52:56.459Z,1.68
2023-12-27T07:53:58.507Z,1.70
2023-12-27T07:54:56.405Z,1.73
2023-12-27T07:55:56.406Z,1.70
2023-12-27T07:56:56.394Z,1.77
2023-12-27T07:57:56.575Z,1.72
2023-12-27T07:58:56.410Z,1.70
2023-12-27T07:59:56.351Z,1.69
2023-12-27T08:00:56.487Z,1.81
2023-12-27T08:01:56.349Z,1.81
2023-12-27T08:02:56.341Z,1.84
2023-12-27T08:03:56.503Z,1.91
2023-12-27T08:04:56.291Z,1.88
2023-12-27T08:05:56.295Z,1.90
2023-12-27T08:06:56.322Z,2.00
2023-12-27T08:07:56.488Z,1.98
2023-12-27T08:08:56.248Z,2.02
2023-12-27T08:09:56.236Z,1.99
2023-12-27T08:10:56.240Z,1.98
2023-12-27T08:11:56.231Z,1.98
2023-12-27T08:12:56.221Z,2.03
2023-12-27T08:13:56.184Z,2.05
2023-12-27T08:14:56.193Z,2.09
2023-12-27T08:15:56.193Z,2.09
2023-12-27T08:16:56.159Z,2.09
2023-12-27T08:17:56.822Z,2.10
2023-12-27T08:18:56.262Z,2.20
2023-12-27T08:19:56.162Z,2.28
2023-12-27T08:20:56.121Z,2.23
2023-12-27T08:21:56.105Z,2.30
2023-12-27T08:22:56.099Z,2.27
2023-12-27T08:23:56.089Z,2.31
2023-12-27T08:24:56.099Z,2.36
2023-12-27T08:25:56.060Z,2.35
2023-12-27T08:26:56.080Z,2.31
2023-12-27T08:27:56.244Z,2.43
2023-12-27T08:28:56.044Z,2.41
2023-12-27T08:29:56.033Z,2.36
2023-12-27T08:30:56.194Z,2.42
2023-12-27T08:31:55.991Z,2.27
2023-12-27T08:32:56.009Z,2.39
2023-12-27T08:33:56.045Z,2.34
2023-12-27T08:34:56.023Z,2.39
2023-12-27T08:35:55.968Z,2.34
2023-12-27T08:36:55.959Z,2.42
2023-12-27T08:37:56.179Z,2.42
2023-12-27T08:38:55.927Z,2.43
2023-12-27T08:39:55.901Z,2.42
2023-12-27T08:40:55.888Z,2.49
2023-12-27T08:41:55.885Z,2.54
2023-12-27T08:42:55.902Z,2.57
2023-12-27T08:43:55.913Z,2.54
2023-12-27T08:44:55.846Z,2.61
2023-12-27T08:45:55.841Z,2.66
2023-12-27T08:46:55.820Z,2.63
2023-12-27T08:47:56.121Z,2.74
2023-12-27T08:48:55.890Z,2.74
2023-12-27T08:49:55.870Z,2.71
2023-12-27T08:50:55.777Z,2.82
2023-12-27T08:51:56.326Z,2.89
2023-12-27T08:52:56.031Z,2.95
2023-12-27T08:53:55.747Z,2.87
2023-12-27T08:54:55.749Z,3.03
2023-12-27T08:55:55.726Z,3.05
2023-12-27T08:56:55.713Z,3.08
2023-12-27T08:57:56.212Z,3.11
2023-12-27T08:58:55.687Z,3.14
2023-12-27T08:59:55.701Z,3.20
2023-12-27T09:00:55.734Z,3.15
2023-12-27T09:01:55.663Z,3.23
2023-12-27T09:02:55.653Z,3.28
2023-12-27T09:03:55.680Z,3.28
2023-12-27T09:04:55.684Z,3.40
2023-12-27T09:05:55.620Z,3.40
2023-12-27T09:06:55.686Z,3.45
2023-12-27T09:07:55.823Z,3.39
2023-12-27T09:08:55.589Z,3.32
2023-12-27T09:09:58.668Z,3.47
2023-12-27T09:10:55.552Z,3.51
2023-12-27T09:11:55.552Z,3.51
2023-12-27T09:12:55.547Z,3.47
2023-12-27T09:13:55.529Z,3.58
2023-12-27T09:14:55.510Z,3.62
2023-12-27T09:15:55.591Z,3.61
2023-12-27T09:16:55.498Z,3.73
2023-12-27T09:17:55.695Z,3.78
2023-12-27T09:18:55.601Z,3.76
2023-12-27T09:19:55.508Z,3.80
2023-12-27T09:20:55.446Z,3.80
2023-12-27T09:21:55.442Z,3.88
2023-12-27T09:22:55.419Z,3.83
2023-12-27T09:23:55.411Z,3.87
2023-12-27T09:24:55.415Z,3.96
2023-12-27T09:25:55.391Z,3.88
2023-12-27T09:26:55.372Z,3.88
2023-12-27T09:27:55.501Z,4.00
2023-12-27T09:28:55.347Z,4.00
2023-12-27T09:29:55.372Z,4.08
2023-12-27T09:30:55.380Z,4.08
2023-12-27T09:31:55.425Z,4.16
2023-12-27T09:32:55.342Z,4.16
2023-12-27T09:33:55.381Z,4.29
2023-12-27T09:34:55.328Z,4.27
2023-12-27T09:35:55.283Z,4.37
2023-12-27T09:36:55.264Z,4.32
2023-12-27T09:37:55.384Z,4.40
2023-12-27T09:38:55.253Z,4.47
2023-12-27T09:39:55.238Z,4.40
2023-12-27T09:40:55.838Z,4.47
2023-12-27T09:41:55.199Z,4.52
2023-12-27T09:42:55.224Z,4.52
2023-12-27T09:43:55.286Z,4.69
2023-12-27T09:44:55.166Z,4.66
2023-12-27T09:45:55.162Z,4.69
2023-12-27T09:46:55.151Z,4.54
2023-12-27T09:47:55.370Z,4.67
2023-12-27T09:48:55.292Z,4.63
2023-12-27T09:49:55.225Z,4.69
2023-12-27T09:50:55.098Z,4.67
2023-12-27T09:51:55.092Z,4.85
2023-12-27T09:52:55.112Z,4.80
2023-12-27T09:53:55.075Z,4.84
2023-12-27T09:54:55.050Z,4.97
2023-12-27T09:55:55.040Z,4.99
2023-12-27T09:56:55.031Z,4.99
2023-12-27T09:57:55.077Z,5.02
2023-12-27T09:58:55.024Z,5.02
2023-12-27T09:59:55.000Z,5.07
2023-12-27T10:00:55.089Z,5.09
2023-12-27T10:01:54.978Z,5.15
2023-12-27T10:02:55.019Z,5.17
2023-12-27T10:03:55.019Z,5.21
2023-12-27T10:04:54.988Z,5.30
2023-12-27T10:05:54.930Z,5.22
2023-12-27T10:06:54.927Z,5.18
2023-12-27T10:07:55.172Z,5.22
2023-12-27T10:08:54.895Z,5.31
2023-12-27T10:09:54.946Z,5.33
2023-12-27T10:10:54.888Z,5.17
2023-12-27T10:11:54.877Z,5.20
2023-12-27T10:12:54.853Z,5.25
2023-12-27T10:13:54.841Z,5.38
2023-12-27T10:14:54.832Z,5.38
2023-12-27T10:15:54.856Z,5.48
2023-12-27T10:16:54.854Z,5.49
2023-12-27T10:17:54.920Z,5.43
2023-12-27T10:18:54.868Z,5.53
2023-12-27T10:19:54.792Z,5.58
2023-12-27T10:20:54.765Z,5.71
2023-12-27T10:21:54.758Z,5.68
2023-12-27T10:22:54.758Z,5.79
2023-12-27T10:23:54.724Z,5.81
2023-12-27T10:24:54.721Z,5.85
2023-12-27T10:25:54.729Z,5.96
2023-12-27T10:26:54.706Z,5.90
2023-12-27T10:27:54.789Z,5.90
2023-12-27T10:28:54.689Z,5.94
2023-12-27T10:29:54.657Z,6.00
2023-12-27T10:30:54.852Z,6.04
2023-12-27T10:31:54.632Z,6.09
2023-12-27T10:32:54.706Z,6.15
2023-12-27T10:33:54.779Z,6.17
2023-12-27T10:34:54.721Z,6.28
2023-12-27T10:35:54.654Z,6.28
2023-12-27T10:36:54.599Z,6.28
2023-12-27T10:37:54.757Z,6.37
2023-12-27T10:38:54.596Z,6.51
2023-12-27T10:39:54.584Z,6.44
2023-12-27T10:40:54.564Z,6.51
2023-12-27T10:41:54.550Z,6.56
2023-12-27T10:42:54.512Z,6.56
2023-12-27T10:43:54.507Z,6.56
2023-12-27T10:44:54.505Z,6.61
2023-12-27T10:45:54.526Z,6.61
2023-12-27T10:46:54.486Z,6.69
2023-12-27T10:47:54.505Z,6.70
2023-12-27T10:48:54.550Z,6.71
2023-12-27T10:49:54.463Z,6.76
2023-12-27T10:50:54.429Z,6.84
2023-12-27T10:51:54.436Z,6.84
2023-12-27T10:52:54.411Z,6.77
2023-12-27T10:53:54.396Z,6.84
2023-12-27T10:54:54.396Z,6.81
2023-12-27T10:55:54.379Z,6.77
2023-12-27T10:56:54.363Z,6.80
2023-12-27T10:57:54.444Z,6.92
2023-12-27T10:58:54.364Z,6.97
2023-12-27T10:59:54.329Z,6.95
2023-12-27T11:00:54.399Z,7.07
2023-12-27T11:01:54.302Z,6.99
2023-12-27T11:02:54.366Z,7.03
2023-12-27T11:03:54.365Z,7.07
2023-12-27T11:04:54.282Z,7.10
2023-12-27T11:05:54.306Z,7.02
2023-12-27T11:06:54.298Z,7.07
2023-12-27T11:07:54.365Z,7.06
2023-12-27T11:08:54.224Z,7.09
2023-12-27T11:09:54.213Z,7.10
2023-12-27T11:10:54.224Z,7.03
2023-12-27T11:11:54.194Z,7.12
2023-12-27T11:12:54.203Z,7.15
2023-12-27T11:13:54.171Z,7.17
2023-12-27T11:14:54.167Z,7.13
2023-12-27T11:15:54.278Z,7.21
2023-12-27T11:16:54.144Z,7.25
2023-12-27T11:17:54.198Z,7.21
2023-12-27T11:18:54.254Z,7.24
2023-12-27T11:19:54.197Z,7.35
2023-12-27T11:20:54.089Z,7.28
2023-12-27T11:21:54.148Z,7.32
2023-12-27T11:22:54.085Z,7.25
2023-12-27T11:23:54.095Z,7.28
2023-12-27T11:24:54.050Z,7.39
2023-12-27T11:25:54.036Z,7.42
2023-12-27T11:26:54.437Z,7.40
2023-12-27T11:27:55.100Z,7.40
2023-12-27T11:28:54.023Z,7.39
2023-12-27T11:29:53.991Z,7.49
2023-12-27T11:30:54.040Z,7.45
2023-12-27T11:31:53.993Z,7.49
2023-12-27T11:32:53.984Z,7.45
2023-12-27T11:33:54.067Z,7.46
2023-12-27T11:34:54.037Z,7.46
2023-12-27T11:35:53.952Z,7.50
2023-12-27T11:36:54.401Z,7.64
2023-12-27T11:37:53.905Z,7.60
2023-12-27T11:38:53.900Z,7.61
2023-12-27T11:39:54.044Z,7.67
2023-12-27T11:40:53.914Z,7.58
2023-12-27T11:41:53.854Z,7.53
2023-12-27T11:42:53.840Z,7.60
2023-12-27T11:43:54.908Z,7.50
2023-12-27T11:44:53.823Z,7.64
2023-12-27T11:45:53.820Z,7.61
2023-12-27T11:46:56.343Z,7.69
2023-12-27T11:47:53.839Z,7.52
2023-12-27T11:48:53.851Z,7.46
2023-12-27T11:49:53.864Z,7.61
2023-12-27T11:50:53.771Z,7.55
2023-12-27T11:51:53.733Z,7.53
2023-12-27T11:52:59.780Z,7.61
2023-12-27T11:53:54.730Z,7.71
2023-12-27T11:54:53.723Z,7.75
2023-12-27T11:55:53.754Z,7.77
2023-12-27T11:56:53.692Z,7.80
2023-12-27T11:57:53.694Z,7.80
2023-12-27T11:58:53.658Z,7.92
2023-12-27T11:59:53.657Z,7.89
2023-12-27T12:00:53.647Z,7.98
2023-12-27T12:01:53.657Z,8.02
2023-12-27T12:02:54.583Z,8.00
2023-12-27T12:03:53.716Z,8.01
2023-12-27T12:04:53.615Z,8.15
2023-12-27T12:05:53.607Z,8.18
2023-12-27T12:06:53.610Z,8.19
2023-12-27T12:07:54.362Z,8.18
2023-12-27T12:08:58.014Z,8.20
2023-12-27T12:09:53.555Z,8.16
2023-12-27T12:10:53.526Z,8.33
2023-12-27T12:11:54.354Z,8.18
2023-12-27T12:12:53.571Z,8.16
2023-12-27T12:13:53.503Z,8.28
2023-12-27T12:14:55.994Z,8.29
2023-12-27T12:15:53.514Z,8.33
2023-12-27T12:16:53.467Z,8.41
2023-12-27T12:17:53.545Z,8.30
2023-12-27T12:18:53.648Z,8.26
2023-12-27T12:19:53.645Z,8.19
2023-12-27T12:20:55.529Z,8.18
2023-12-27T12:21:53.404Z,8.22
2023-12-27T12:22:53.410Z,8.16
2023-12-27T12:23:53.404Z,8.19
2023-12-27T12:24:53.426Z,8.19
2023-12-27T12:25:53.359Z,8.25
2023-12-27T12:26:53.344Z,8.16
2023-12-27T12:27:54.495Z,8.18
2023-12-27T12:28:53.327Z,8.15
2023-12-27T12:29:53.324Z,8.16
2023-12-27T12:30:53.380Z,8.02
2023-12-27T12:31:53.296Z,8.11
2023-12-27T12:32:53.420Z,8.01
2023-12-27T12:33:53.332Z,8.10
2023-12-27T12:34:53.281Z,8.10
2023-12-27T12:35:53.254Z,8.08
2023-12-27T12:36:53.255Z,8.05
2023-12-27T12:37:53.246Z,8.12
2023-12-27T12:38:53.226Z,8.02
2023-12-27T12:39:53.274Z,8.12
2023-12-27T12:40:53.188Z,8.12
2023-12-27T12:41:53.205Z,8.15
2023-12-27T12:42:53.259Z,8.15
2023-12-27T12:43:53.170Z,8.10
2023-12-27T12:44:53.153Z,8.15
2023-12-27T12:45:53.180Z,8.15
2023-12-27T12:46:53.173Z,8.19
2023-12-27T12:47:53.134Z,8.16
2023-12-27T12:48:53.132Z,8.25
2023-12-27T12:49:53.117Z,8.18
2023-12-27T12:50:53.153Z,8.19
2023-12-27T12:51:53.284Z,8.22
2023-12-27T12:52:53.052Z,8.18
2023-12-27T12:53:59.835Z,8.18
2023-12-27T12:54:53.030Z,8.28
2023-12-27T12:55:53.036Z,8.28
2023-12-27T12:56:53.051Z,8.29
2023-12-27T12:57:53.029Z,8.33
2023-12-27T12:58:52.995Z,8.29
2023-12-27T12:59:52.994Z,8.23
2023-12-27T13:00:53.133Z,8.28
2023-12-27T13:01:52.966Z,8.30
2023-12-27T13:02:52.985Z,8.34
2023-12-27T13:03:52.999Z,8.30
2023-12-27T13:04:53.006Z,8.33
2023-12-27T13:05:52.926Z,8.30
2023-12-27T13:06:52.971Z,8.34
2023-12-27T13:07:52.888Z,8.33
2023-12-27T13:08:52.869Z,8.28
2023-12-27T13:09:52.877Z,8.28
2023-12-27T13:10:52.860Z,8.37
2023-12-27T13:11:53.825Z,8.33
2023-12-27T13:12:52.868Z,8.36
2023-12-27T13:13:52.811Z,8.43
2023-12-27T13:14:52.804Z,8.41
2023-12-27T13:15:52.846Z,8.30
2023-12-27T13:16:52.783Z,8.30
2023-12-27T13:17:52.915Z,8.28